Time;durP1;ratioP1;P1;durP2;ratioP2;P2;SDS_P1;SDS_P2;PMS_P1;PMS_P2;Temp;Humidity;BMP_temperature;BMP_pressure;BME280_temperature;BME280_humidity;BME280_pressure;Samples;Min_cycle;Max_cycle;Signal;HPM_P1;HPM_P2
2022/05/16 00:06:01;;;;;;;5.82;2.83;;;;;;;23.32;34.09;100547.56;20382358;28;97192;-75
2022/05/16 00:16:02;;;;;;;5.07;2.50;;;;;;;23.29;34.07;100556.59;20365713;28;97926;-75
2022/05/16 00:26:03;;;;;;;3.42;2.50;;;;;;;23.21;34.30;100552.91;20352367;28;98865;-75
2022/05/16 00:36:05;;;;;;;3.60;2.70;;;;;;;23.11;34.76;100574.78;20354083;28;101021;-75
2022/05/16 00:46:06;;;;;;;7.95;2.90;;;;;;;22.99;34.52;100573.97;20369020;28;96768;-75
2022/05/16 00:56:07;;;;;;;4.30;2.85;;;;;;;22.97;34.45;100577.72;20364813;28;101462;-74
2022/05/16 01:06:08;;;;;;;4.00;2.70;;;;;;;23.01;34.45;100589.72;20373165;28;98778;-75
2022/05/16 01:16:09;;;;;;;6.57;2.85;;;;;;;22.93;34.70;100584.22;20357945;28;100237;-75
2022/05/16 01:26:17;;;;;;;3.35;2.50;;;;;;;22.89;34.63;100588.06;20367794;28;98236;-75
2022/05/16 01:36:18;;;;;;;8.40;2.85;;;;;;;22.73;35.04;100591.09;20374495;28;100387;-75
2022/05/16 01:46:32;;;;;;;6.13;2.83;;;;;;;22.69;35.06;100585.22;20370584;28;98004;-74
2022/05/16 01:56:34;;;;;;;3.92;2.33;;;;;;;22.60;35.25;100580.72;20370781;28;97212;-75
2022/05/16 02:06:35;;;;;;;8.15;2.63;;;;;;;22.57;35.28;100588.88;20360714;28;97143;-75
2022/05/16 02:16:35;;;;;;;4.95;3.13;;;;;;;22.53;35.10;100604.97;20367203;28;97534;-75
2022/05/16 02:26:36;;;;;;;6.50;3.05;;;;;;;22.41;36.09;100595.38;20366195;28;97238;-74
2022/05/16 02:36:37;;;;;;;6.63;3.40;;;;;;;22.38;36.18;100617.53;20364137;28;98806;-75
2022/05/16 02:46:38;;;;;;;6.72;3.13;;;;;;;22.27;36.87;100606.16;20368318;28;97800;-74
2022/05/16 02:56:38;;;;;;;6.90;3.38;;;;;;;22.24;36.73;100601.97;20349166;28;97125;-74
2022/05/16 03:06:39;;;;;;;5.45;2.85;;;;;;;22.26;36.67;100599.19;20357984;28;97646;-74
2022/05/16 03:16:40;;;;;;;8.15;3.08;;;;;;;22.19;36.58;100606.72;20360734;28;97263;-74
2022/05/16 03:26:40;;;;;;;6.95;3.08;;;;;;;22.05;36.78;100606.00;20357781;28;96921;-74
2022/05/16 03:36:41;;;;;;;5.00;2.92;;;;;;;22.06;36.90;100604.22;20361394;28;97208;-74
2022/05/16 03:46:41;;;;;;;5.28;2.95;;;;;;;21.98;37.05;100617.16;20356277;28;97052;-74
2022/05/16 03:56:42;;;;;;;6.28;3.15;;;;;;;22.02;37.25;100616.81;20360747;28;97566;-74
2022/05/16 04:06:42;;;;;;;6.13;3.33;;;;;;;21.95;37.30;100626.16;20362561;28;98361;-74
2022/05/16 04:16:43;;;;;;;6.25;2.55;;;;;;;21.93;37.45;100622.78;20342769;28;97237;-75
2022/05/16 04:26:43;;;;;;;4.85;3.05;;;;;;;22.10;37.67;100634.66;20337568;28;98904;-76
2022/05/16 04:36:44;;;;;;;6.35;2.65;;;;;;;22.41;37.45;100634.97;20353046;28;98911;-75
2022/05/16 04:46:45;;;;;;;8.40;2.65;;;;;;;22.65;37.84;100650.63;20360790;28;97535;-74
2022/05/16 04:56:46;;;;;;;5.82;2.85;;;;;;;22.84;38.08;100646.53;20377859;28;100790;-75
2022/05/16 05:06:48;;;;;;;8.37;2.80;;;;;;;22.99;37.67;100645.28;20364685;28;97528;-74
2022/05/16 05:16:48;;;;;;;5.00;2.47;;;;;;;23.15;38.08;100649.31;20367804;28;99332;-75
2022/05/16 05:26:49;;;;;;;9.63;2.92;;;;;;;23.24;38.05;100640.69;20356773;28;97784;-77
2022/05/16 05:36:50;;;;;;;5.28;2.38;;;;;;;23.33;37.32;100647.00;20394491;28;97699;-76
2022/05/16 05:46:50;;;;;;;6.15;2.28;;;;;;;23.42;37.38;100650.69;20361928;28;101294;-77
2022/05/16 05:56:51;;;;;;;14.95;2.80;;;;;;;23.52;37.61;100648.13;20391978;28;98121;-75
2022/05/16 06:06:52;;;;;;;10.43;2.42;;;;;;;23.58;36.56;100647.59;20363066;28;102055;-76
2022/05/16 06:16:54;;;;;;;11.10;2.70;;;;;;;23.50;35.84;100654.34;20354395;28;97599;-75
2022/05/16 06:26:54;;;;;;;8.48;2.55;;;;;;;23.63;36.35;100654.19;20356978;28;98008;-75
2022/05/16 06:36:55;;;;;;;10.40;2.55;;;;;;;23.41;35.54;100649.84;20357199;28;99678;-74
2022/05/16 06:46:56;;;;;;;6.50;2.50;;;;;;;23.46;34.44;100645.03;20377932;28;98304;-74
2022/05/16 06:56:56;;;;;;;7.07;1.55;;;;;;;23.38;32.58;100651.91;20462059;28;98539;-75
2022/05/16 07:06:57;;;;;;;7.32;1.70;;;;;;;23.46;33.33;100660.88;20459731;28;96918;-78
2022/05/16 07:16:57;;;;;;;5.93;1.60;;;;;;;23.62;34.17;100651.66;20459238;28;97015;-78
2022/05/16 07:37:16;;;;;;;5.55;1.60;;;;;;;23.86;34.73;100658.50;20449336;28;97314;-76
2022/05/16 07:47:18;;;;;;;2.90;1.50;;;;;;;23.94;35.05;100659.56;20478938;28;97425;-77
2022/05/16 07:57:19;;;;;;;2.90;1.40;;;;;;;24.03;35.58;100652.63;20430967;28;97708;-75
2022/05/16 08:07:19;;;;;;;13.88;5.53;;;;;;;24.03;31.80;100660.56;20434954;28;99210;-75
2022/05/16 08:17:21;;;;;;;4.35;2.40;;;;;;;23.92;30.48;100666.78;20462905;28;97209;-74
2022/05/16 08:27:21;;;;;;;4.32;1.95;;;;;;;23.87;30.27;100661.00;20450724;28;97920;-79
2022/05/16 08:47:54;;;;;;;3.65;1.70;;;;;;;24.00;30.13;100652.91;20461359;28;99709;-74
2022/05/16 08:58:06;;;;;;;5.10;2.17;;;;;;;24.03;30.46;100657.09;20448157;28;96871;-74
2022/05/16 09:08:13;;;;;;;6.50;2.07;;;;;;;24.06;30.03;100654.16;20482634;28;98450;-73
2022/05/16 09:18:24;;;;;;;10.18;2.25;;;;;;;24.13;30.84;100650.03;20489989;28;96807;-73
2022/05/16 09:28:37;;;;;;;4.20;1.83;;;;;;;24.17;30.12;100630.31;20487635;28;97656;-73
2022/05/16 09:38:43;;;;;;;3.78;2.05;;;;;;;24.23;31.10;100639.50;20481454;28;97461;-73
2022/05/16 09:48:45;;;;;;;4.80;1.92;;;;;;;24.28;31.57;100622.25;20491280;28;96992;-73
2022/05/16 09:58:50;;;;;;;3.47;1.97;;;;;;;24.36;30.91;100620.75;20481594;28;97274;-72
2022/05/16 10:08:51;;;;;;;5.35;2.00;;;;;;;24.41;32.24;100602.66;20479775;28;98138;-75
2022/05/16 10:19:00;;;;;;;8.87;1.90;;;;;;;24.48;32.09;100595.03;20493906;28;98409;-74
2022/05/16 10:29:08;;;;;;;8.90;2.08;;;;;;;24.51;32.18;100587.66;20489048;28;98743;-74
2022/05/16 10:39:23;;;;;;;4.40;1.90;;;;;;;24.57;31.97;100576.50;20503786;28;97744;-74
2022/05/16 10:49:29;;;;;;;3.75;1.95;;;;;;;24.61;31.87;100579.72;20489662;28;97657;-74
2022/05/16 10:59:36;;;;;;;4.68;1.90;;;;;;;24.66;31.61;100579.31;20495838;28;97055;-74
2022/05/16 11:09:48;;;;;;;3.20;2.00;;;;;;;24.69;31.72;100569.28;20442078;28;97296;-74
2022/05/16 11:20:04;;;;;;;10.93;3.08;;;;;;;24.77;32.05;100552.72;20357711;28;97978;-74
2022/05/16 11:30:23;;;;;;;7.30;3.33;;;;;;;24.88;31.85;100534.06;20360574;28;98905;-76
2022/05/16 11:41:07;;;;;;;8.63;2.80;;;;;;;25.05;32.23;100529.84;20376144;28;99222;-74
2022/05/16 11:51:39;;;;;;;7.70;2.60;;;;;;;25.09;32.12;100531.22;20440712;28;97555;-76
2022/05/16 12:01:44;;;;;;;5.88;2.63;;;;;;;25.15;32.16;100513.13;20459691;28;96861;-76
2022/05/16 12:12:12;;;;;;;3.95;2.20;;;;;;;25.22;32.34;100503.63;20460301;28;97247;-76
2022/05/16 12:22:33;;;;;;;3.45;2.40;;;;;;;25.31;31.99;100501.94;20460451;28;98468;-76
2022/05/16 12:32:33;;;;;;;5.80;2.40;;;;;;;25.37;31.73;100474.84;20459301;28;101133;-75
2022/05/16 12:42:52;;;;;;;3.35;2.20;;;;;;;25.45;31.71;100469.69;20446769;28;101648;-75
2022/05/16 12:53:22;;;;;;;3.67;2.30;;;;;;;25.53;31.41;100439.78;20454298;28;97025;-76
2022/05/16 13:03:38;;;;;;;8.60;2.75;;;;;;;25.60;31.55;100432.06;20324328;28;98563;-76
2022/05/16 13:13:58;;;;;;;5.05;2.67;;;;;;;26.00;31.62;100417.59;20429909;28;97658;-77
2022/05/16 13:23:59;;;;;;;5.80;2.67;;;;;;;25.97;31.24;100404.66;20434754;28;99863;-79
2022/05/16 13:34:01;;;;;;;8.60;2.83;;;;;;;25.93;31.66;100397.97;20429736;28;102184;-76
2022/05/16 13:44:01;;;;;;;3.25;2.40;;;;;;;25.91;31.97;100392.81;20422908;28;97632;-75
2022/05/16 13:54:06;;;;;;;7.77;2.50;;;;;;;25.92;31.99;100386.53;20471925;28;97809;-74
2022/05/16 14:04:14;;;;;;;8.10;2.70;;;;;;;26.00;33.37;100375.16;20446406;28;97651;-74
2022/05/16 14:14:18;;;;;;;5.85;2.50;;;;;;;26.03;32.72;100373.03;20466742;28;96945;-74
2022/05/16 14:24:25;;;;;;;4.25;2.63;;;;;;;26.05;31.78;100360.47;20469577;28;97008;-73
2022/05/16 14:34:29;;;;;;;5.80;2.42;;;;;;;26.04;31.65;100352.66;20458498;28;101091;-74
2022/05/16 14:44:34;;;;;;;5.05;2.65;;;;;;;25.99;32.06;100346.97;20445850;28;98791;-74
2022/05/16 14:54:39;;;;;;;7.53;2.65;;;;;;;26.00;32.35;100341.50;20454256;28;98191;-74
2022/05/16 15:04:40;;;;;;;5.50;2.72;;;;;;;26.02;33.08;100334.25;20434675;28;99431;-75
2022/05/16 15:14:40;;;;;;;7.03;2.93;;;;;;;26.04;32.91;100334.09;20454263;28;97575;-74
2022/05/16 15:24:55;;;;;;;6.07;2.70;;;;;;;26.00;32.63;100314.13;20464302;28;97202;-73
2022/05/16 15:34:56;;;;;;;7.00;2.88;;;;;;;25.97;32.99;100306.50;20453522;28;97136;-75
2022/05/16 15:45:01;;;;;;;4.80;2.43;;;;;;;26.02;33.21;100301.56;20460173;28;97659;-73
2022/05/16 15:55:03;;;;;;;8.57;2.58;;;;;;;26.06;33.16;100289.63;20463580;28;97766;-73
2022/05/16 16:15:24;;;;;;;4.85;2.25;;;;;;;26.10;33.35;100285.75;20447292;28;98677;-73
2022/05/16 16:25:26;;;;;;;5.90;2.60;;;;;;;26.16;32.46;100286.97;20442051;28;99192;-74
2022/05/16 16:35:26;;;;;;;;;;;;;;;26.12;32.76;100281.13;20476144;28;97141;-73
2022/05/16 16:45:27;;;;;;;7.82;2.72;;;;;;;26.09;33.85;100291.22;20434313;28;98158;-74
2022/05/16 17:05:48;;;;;;;4.07;2.50;;;;;;;26.15;33.23;100277.31;20457453;28;97068;-74
2022/05/16 17:15:54;;;;;;;5.15;2.70;;;;;;;26.17;33.43;100280.63;20421665;28;96979;-73
2022/05/16 17:25:55;;;;;;;6.25;2.83;;;;;;;26.19;32.86;100276.00;20446660;28;97603;-74
2022/05/16 17:35:55;;;;;;;3.65;2.72;;;;;;;26.25;32.84;100274.56;20430911;28;97368;-74
2022/05/16 17:45:56;;;;;;;8.40;2.77;;;;;;;26.25;33.23;100272.75;20465360;28;100150;-76
2022/05/16 17:55:57;;;;;;;3.73;3.00;;;;;;;26.28;32.95;100275.09;20450458;28;99340;-76
2022/05/16 18:05:58;;;;;;;7.43;3.93;;;;;;;26.28;32.53;100276.91;20447241;28;97646;-75
2022/05/16 18:15:59;;;;;;;6.22;3.25;;;;;;;26.23;32.30;100290.63;20441689;28;101250;-75
2022/05/16 18:25:59;;;;;;;4.72;3.90;;;;;;;26.17;32.61;100294.75;20462911;28;100994;-79
2022/05/16 18:36:00;;;;;;;7.18;3.47;;;;;;;26.14;32.80;100310.16;20445212;28;103821;-75
2022/05/16 18:56:23;;;;;;;8.73;4.82;;;;;;;25.92;33.82;100328.16;20444979;27;98250;-75
2022/05/16 19:06:24;;;;;;;9.43;4.70;;;;;;;25.86;34.08;100334.06;20446629;28;99331;-75
2022/05/16 19:16:24;;;;;;;13.07;4.83;;;;;;;25.71;34.10;100342.56;20442249;28;97234;-75
2022/05/16 19:26:26;;;;;;;8.50;4.27;;;;;;;25.62;34.63;100338.16;20462656;28;97297;-74
2022/05/16 19:36:26;;;;;;;;;;;;;;;25.53;35.19;100349.66;20449427;28;100951;-74
2022/05/16 19:46:27;;;;;;;11.85;5.20;;;;;;;25.43;35.54;100362.97;20430279;28;98424;-74
2022/05/16 19:56:27;;;;;;;10.10;5.28;;;;;;;25.35;36.09;100357.53;20441318;28;98775;-74
2022/05/16 20:06:28;;;;;;;11.82;5.40;;;;;;;25.26;36.58;100356.59;20436319;28;98799;-74
2022/05/16 20:16:29;;;;;;;9.73;4.93;;;;;;;25.26;36.92;100356.59;20454265;28;96954;-74
2022/05/16 20:26:29;;;;;;;13.60;5.97;;;;;;;25.18;37.24;100354.69;20432905;28;97017;-73
2022/05/16 20:36:31;;;;;;;14.88;5.40;;;;;;;25.10;37.54;100347.44;20440909;28;102396;-74
2022/05/16 20:46:31;;;;;;;12.48;5.68;;;;;;;25.02;37.91;100346.50;20449539;28;97256;-73
2022/05/16 20:56:34;;;;;;;11.75;5.88;;;;;;;25.03;38.24;100348.19;20457086;28;98006;-74
2022/05/16 21:06:34;;;;;;;14.57;6.10;;;;;;;24.94;38.27;100350.72;20427462;28;98186;-74
2022/05/16 21:16:35;;;;;;;14.60;5.68;;;;;;;24.87;38.72;100352.28;20443487;28;101177;-73
2022/05/16 21:26:35;;;;;;;12.55;5.68;;;;;;;24.82;38.99;100349.22;20444708;28;97766;-73
2022/05/16 21:36:36;;;;;;;10.73;5.50;;;;;;;24.74;39.09;100343.81;20453471;28;98360;-73
2022/05/16 21:46:37;;;;;;;13.57;5.40;;;;;;;24.69;39.27;100346.88;20451586;28;99246;-73
2022/05/16 21:56:38;;;;;;;11.83;4.63;;;;;;;24.69;39.07;100354.00;20449410;28;98609;-74
2022/05/16 22:06:40;;;;;;;8.73;4.50;;;;;;;24.58;39.50;100355.81;20448187;28;97836;-73
2022/05/16 22:16:40;;;;;;;8.73;4.25;;;;;;;24.62;39.62;100351.06;20454118;28;97112;-72
2022/05/16 22:26:43;;;;;;;8.60;4.67;;;;;;;24.53;39.58;100347.44;20461394;28;98748;-73
2022/05/16 22:36:43;;;;;;;6.47;4.38;;;;;;;24.51;39.88;100348.56;20449868;28;97158;-72
2022/05/16 22:46:44;;;;;;;6.90;4.03;;;;;;;24.49;39.84;100346.06;20450182;28;98109;-73
2022/05/16 22:56:45;;;;;;;7.95;4.00;;;;;;;24.43;39.65;100357.22;20453848;28;97443;-74
2022/05/16 23:06:45;;;;;;;6.80;3.95;;;;;;;24.40;39.68;100358.34;20419482;28;101141;-73
2022/05/16 23:16:47;;;;;;;11.40;3.88;;;;;;;24.33;39.73;100353.72;20437990;28;97896;-73
2022/05/16 23:26:48;;;;;;;6.57;3.83;;;;;;;24.28;39.82;100355.00;20440825;28;98725;-73
2022/05/16 23:36:49;;;;;;;5.10;3.70;;;;;;;24.25;40.03;100357.91;20434793;28;97324;-73
2022/05/16 23:46:50;;;;;;;6.43;3.90;;;;;;;24.20;40.37;100351.38;20447705;28;97767;-73
2022/05/16 23:56:51;;;;;;;6.77;4.00;;;;;;;24.20;40.28;100344.28;20440162;28;97916;-73
